sensor_id;sensor_type;location;lat;lon;timestamp;P1;durP1;ratioP1;P2;durP2;ratioP2
14526;SDS011;7350;51.208;4.238;2023-05-27T00:00:32;5.72;;;2.53;;
14526;SDS011;7350;51.208;4.238;2023-05-27T00:02:59;5.43;;;2.72;;
14526;SDS011;7350;51.208;4.238;2023-05-27T00:05:26;4.55;;;2.47;;
14526;SDS011;7350;51.208;4.238;2023-05-27T00:07:54;4.38;;;2.15;;
14526;SDS011;7350;51.208;4.238;2023-05-27T00:10:22;5.25;;;2.25;;
14526;SDS011;7350;51.208;4.238;2023-05-27T00:12:48;4.65;;;2.85;;
14526;SDS011;7350;51.208;4.238;2023-05-27T00:15:15;5.00;;;2.60;;
14526;SDS011;7350;51.208;4.238;2023-05-27T00:17:43;4.53;;;2.53;;
14526;SDS011;7350;51.208;4.238;2023-05-27T00:20:10;5.85;;;2.88;;
14526;SDS011;7350;51.208;4.238;2023-05-27T00:22:37;4.53;;;2.30;;
14526;SDS011;7350;51.208;4.238;2023-05-27T00:25:07;4.97;;;2.30;;
14526;SDS011;7350;51.208;4.238;2023-05-27T00:27:34;6.35;;;2.88;;
14526;SDS011;7350;51.208;4.238;2023-05-27T00:30:01;3.47;;;2.15;;
14526;SDS011;7350;51.208;4.238;2023-05-27T00:32:29;4.55;;;2.33;;
14526;SDS011;7350;51.208;4.238;2023-05-27T00:34:56;6.22;;;2.42;;
14526;SDS011;7350;51.208;4.238;2023-05-27T00:37:22;5.15;;;2.50;;
14526;SDS011;7350;51.208;4.238;2023-05-27T00:39:50;5.47;;;2.50;;
14526;SDS011;7350;51.208;4.238;2023-05-27T00:42:18;6.55;;;2.47;;
14526;SDS011;7350;51.208;4.238;2023-05-27T00:44:46;5.45;;;2.45;;
14526;SDS011;7350;51.208;4.238;2023-05-27T00:47:13;6.32;;;2.55;;
14526;SDS011;7350;51.208;4.238;2023-05-27T00:49:41;7.38;;;2.80;;
14526;SDS011;7350;51.208;4.238;2023-05-27T00:52:09;4.75;;;2.35;;
14526;SDS011;7350;51.208;4.238;2023-05-27T00:54:36;5.30;;;2.53;;
14526;SDS011;7350;51.208;4.238;2023-05-27T00:57:03;6.32;;;2.63;;
14526;SDS011;7350;51.208;4.238;2023-05-27T00:59:32;6.00;;;2.50;;
14526;SDS011;7350;51.208;4.238;2023-05-27T01:01:59;6.50;;;2.65;;
14526;SDS011;7350;51.208;4.238;2023-05-27T01:04:26;5.63;;;2.40;;
14526;SDS011;7350;51.208;4.238;2023-05-27T01:06:55;6.70;;;2.78;;
14526;SDS011;7350;51.208;4.238;2023-05-27T01:09:28;6.07;;;2.60;;
14526;SDS011;7350;51.208;4.238;2023-05-27T01:12:02;4.32;;;2.67;;
14526;SDS011;7350;51.208;4.238;2023-05-27T01:14:34;5.35;;;2.50;;
14526;SDS011;7350;51.208;4.238;2023-05-27T01:17:05;6.03;;;2.40;;
14526;SDS011;7350;51.208;4.238;2023-05-27T01:19:33;4.55;;;2.05;;
14526;SDS011;7350;51.208;4.238;2023-05-27T01:22:01;5.18;;;2.13;;
14526;SDS011;7350;51.208;4.238;2023-05-27T01:24:30;4.32;;;2.20;;
14526;SDS011;7350;51.208;4.238;2023-05-27T01:26:58;4.72;;;2.13;;
14526;SDS011;7350;51.208;4.238;2023-05-27T01:29:27;6.85;;;2.95;;
14526;SDS011;7350;51.208;4.238;2023-05-27T01:31:56;3.92;;;2.42;;
14526;SDS011;7350;51.208;4.238;2023-05-27T01:34:32;5.00;;;2.47;;
14526;SDS011;7350;51.208;4.238;2023-05-27T01:37:02;4.72;;;2.55;;
14526;SDS011;7350;51.208;4.238;2023-05-27T01:39:34;4.25;;;2.47;;
14526;SDS011;7350;51.208;4.238;2023-05-27T01:42:02;5.90;;;2.53;;
14526;SDS011;7350;51.208;4.238;2023-05-27T01:44:30;4.13;;;2.30;;
14526;SDS011;7350;51.208;4.238;2023-05-27T01:46:58;5.38;;;2.92;;
14526;SDS011;7350;51.208;4.238;2023-05-27T01:49:28;5.22;;;2.35;;
14526;SDS011;7350;51.208;4.238;2023-05-27T01:51:56;7.10;;;2.80;;
14526;SDS011;7350;51.208;4.238;2023-05-27T01:54:23;3.95;;;2.05;;
14526;SDS011;7350;51.208;4.238;2023-05-27T01:56:51;6.40;;;2.42;;
14526;SDS011;7350;51.208;4.238;2023-05-27T01:59:18;5.22;;;2.33;;
14526;SDS011;7350;51.208;4.238;2023-05-27T02:01:45;4.72;;;2.50;;
14526;SDS011;7350;51.208;4.238;2023-05-27T02:04:12;5.25;;;2.63;;
14526;SDS011;7350;51.208;4.238;2023-05-27T02:06:39;6.53;;;2.58;;
14526;SDS011;7350;51.208;4.238;2023-05-27T02:09:06;4.43;;;2.38;;
14526;SDS011;7350;51.208;4.238;2023-05-27T02:11:34;4.35;;;2.72;;
14526;SDS011;7350;51.208;4.238;2023-05-27T02:14:02;5.80;;;2.60;;
14526;SDS011;7350;51.208;4.238;2023-05-27T02:16:30;4.32;;;2.20;;
14526;SDS011;7350;51.208;4.238;2023-05-27T02:18:58;4.60;;;3.00;;
14526;SDS011;7350;51.208;4.238;2023-05-27T02:21:27;4.95;;;2.53;;
14526;SDS011;7350;51.208;4.238;2023-05-27T02:23:54;4.75;;;2.45;;
14526;SDS011;7350;51.208;4.238;2023-05-27T02:26:21;4.15;;;2.50;;
14526;SDS011;7350;51.208;4.238;2023-05-27T02:28:48;5.85;;;2.60;;
14526;SDS011;7350;51.208;4.238;2023-05-27T02:31:17;5.28;;;2.50;;
14526;SDS011;7350;51.208;4.238;2023-05-27T02:33:44;6.07;;;2.63;;
14526;SDS011;7350;51.208;4.238;2023-05-27T02:36:11;4.82;;;2.55;;
14526;SDS011;7350;51.208;4.238;2023-05-27T02:38:38;4.32;;;2.45;;
14526;SDS011;7350;51.208;4.238;2023-05-27T02:41:05;7.20;;;2.70;;
14526;SDS011;7350;51.208;4.238;2023-05-27T02:43:32;6.22;;;2.90;;
14526;SDS011;7350;51.208;4.238;2023-05-27T02:45:59;5.30;;;2.20;;
14526;SDS011;7350;51.208;4.238;2023-05-27T02:48:27;4.80;;;2.45;;
14526;SDS011;7350;51.208;4.238;2023-05-27T02:50:54;5.47;;;2.63;;
14526;SDS011;7350;51.208;4.238;2023-05-27T02:53:21;5.32;;;2.20;;
14526;SDS011;7350;51.208;4.238;2023-05-27T02:55:49;6.97;;;2.58;;
14526;SDS011;7350;51.208;4.238;2023-05-27T02:58:16;5.80;;;2.67;;
14526;SDS011;7350;51.208;4.238;2023-05-27T03:00:43;4.10;;;2.45;;
14526;SDS011;7350;51.208;4.238;2023-05-27T03:03:10;5.47;;;2.85;;
14526;SDS011;7350;51.208;4.238;2023-05-27T03:05:38;6.00;;;2.90;;
14526;SDS011;7350;51.208;4.238;2023-05-27T03:08:05;4.93;;;2.67;;
14526;SDS011;7350;51.208;4.238;2023-05-27T03:10:32;5.10;;;2.78;;
14526;SDS011;7350;51.208;4.238;2023-05-27T03:12:59;4.38;;;2.40;;
14526;SDS011;7350;51.208;4.238;2023-05-27T03:15:26;4.57;;;2.53;;
14526;SDS011;7350;51.208;4.238;2023-05-27T03:17:54;4.68;;;2.75;;
14526;SDS011;7350;51.208;4.238;2023-05-27T03:20:22;4.78;;;2.28;;
14526;SDS011;7350;51.208;4.238;2023-05-27T03:22:50;5.90;;;2.72;;
14526;SDS011;7350;51.208;4.238;2023-05-27T03:25:17;4.68;;;2.55;;
14526;SDS011;7350;51.208;4.238;2023-05-27T03:27:44;5.20;;;2.30;;
14526;SDS011;7350;51.208;4.238;2023-05-27T03:30:11;4.80;;;2.40;;
14526;SDS011;7350;51.208;4.238;2023-05-27T03:32:38;4.13;;;2.20;;
14526;SDS011;7350;51.208;4.238;2023-05-27T03:35:06;4.32;;;2.53;;
14526;SDS011;7350;51.208;4.238;2023-05-27T03:37:33;4.40;;;2.38;;
14526;SDS011;7350;51.208;4.238;2023-05-27T03:40:01;6.25;;;2.97;;
14526;SDS011;7350;51.208;4.238;2023-05-27T03:42:28;6.15;;;2.80;;
14526;SDS011;7350;51.208;4.238;2023-05-27T03:44:55;6.78;;;2.70;;
14526;SDS011;7350;51.208;4.238;2023-05-27T03:47:22;5.72;;;2.70;;
14526;SDS011;7350;51.208;4.238;2023-05-27T03:49:49;4.93;;;2.40;;
14526;SDS011;7350;51.208;4.238;2023-05-27T03:52:17;5.40;;;2.53;;
14526;SDS011;7350;51.208;4.238;2023-05-27T03:54:44;5.85;;;2.65;;
14526;SDS011;7350;51.208;4.238;2023-05-27T03:57:13;5.75;;;2.80;;
14526;SDS011;7350;51.208;4.238;2023-05-27T03:59:39;3.97;;;2.33;;
14526;SDS011;7350;51.208;4.238;2023-05-27T04:02:06;7.55;;;2.72;;
14526;SDS011;7350;51.208;4.238;2023-05-27T04:04:34;6.43;;;3.00;;
14526;SDS011;7350;51.208;4.238;2023-05-27T04:07:01;4.63;;;2.17;;
14526;SDS011;7350;51.208;4.238;2023-05-27T04:09:28;5.75;;;2.65;;
14526;SDS011;7350;51.208;4.238;2023-05-27T04:11:55;6.05;;;2.88;;
14526;SDS011;7350;51.208;4.238;2023-05-27T04:14:24;5.82;;;2.33;;
14526;SDS011;7350;51.208;4.238;2023-05-27T04:16:50;6.05;;;3.22;;
14526;SDS011;7350;51.208;4.238;2023-05-27T04:19:18;5.30;;;2.42;;
14526;SDS011;7350;51.208;4.238;2023-05-27T04:21:45;5.47;;;2.70;;
14526;SDS011;7350;51.208;4.238;2023-05-27T04:24:13;4.30;;;2.38;;
14526;SDS011;7350;51.208;4.238;2023-05-27T04:26:40;7.47;;;3.17;;
14526;SDS011;7350;51.208;4.238;2023-05-27T04:29:08;4.90;;;2.80;;
14526;SDS011;7350;51.208;4.238;2023-05-27T04:31:38;6.60;;;3.00;;
14526;SDS011;7350;51.208;4.238;2023-05-27T04:34:05;4.15;;;2.22;;
14526;SDS011;7350;51.208;4.238;2023-05-27T04:36:32;7.30;;;2.60;;
14526;SDS011;7350;51.208;4.238;2023-05-27T04:38:59;4.63;;;2.22;;
14526;SDS011;7350;51.208;4.238;2023-05-27T04:41:27;4.47;;;2.58;;
14526;SDS011;7350;51.208;4.238;2023-05-27T04:43:54;8.18;;;2.45;;
14526;SDS011;7350;51.208;4.238;2023-05-27T04:46:23;8.13;;;3.15;;
14526;SDS011;7350;51.208;4.238;2023-05-27T04:48:53;4.95;;;2.30;;
14526;SDS011;7350;51.208;4.238;2023-05-27T04:51:20;8.23;;;2.90;;
14526;SDS011;7350;51.208;4.238;2023-05-27T04:53:48;5.85;;;2.60;;
14526;SDS011;7350;51.208;4.238;2023-05-27T04:56:15;4.53;;;2.22;;
14526;SDS011;7350;51.208;4.238;2023-05-27T04:58:42;5.65;;;2.63;;
14526;SDS011;7350;51.208;4.238;2023-05-27T05:01:11;4.88;;;2.15;;
14526;SDS011;7350;51.208;4.238;2023-05-27T05:03:43;5.65;;;2.67;;
14526;SDS011;7350;51.208;4.238;2023-05-27T05:06:19;4.93;;;2.30;;
14526;SDS011;7350;51.208;4.238;2023-05-27T05:08:47;6.35;;;2.92;;
14526;SDS011;7350;51.208;4.238;2023-05-27T05:11:14;4.78;;;2.55;;
14526;SDS011;7350;51.208;4.238;2023-05-27T05:13:41;4.10;;;2.58;;
14526;SDS011;7350;51.208;4.238;2023-05-27T05:16:08;5.47;;;2.85;;
14526;SDS011;7350;51.208;4.238;2023-05-27T05:18:35;6.18;;;2.63;;
14526;SDS011;7350;51.208;4.238;2023-05-27T05:21:02;7.50;;;2.75;;
14526;SDS011;7350;51.208;4.238;2023-05-27T05:23:31;5.72;;;2.42;;
14526;SDS011;7350;51.208;4.238;2023-05-27T05:25:58;7.75;;;3.03;;
14526;SDS011;7350;51.208;4.238;2023-05-27T05:28:31;6.63;;;2.67;;
14526;SDS011;7350;51.208;4.238;2023-05-27T05:30:59;7.63;;;2.97;;
14526;SDS011;7350;51.208;4.238;2023-05-27T05:33:26;8.90;;;3.97;;
14526;SDS011;7350;51.208;4.238;2023-05-27T05:35:53;7.97;;;3.55;;
14526;SDS011;7350;51.208;4.238;2023-05-27T05:38:21;8.85;;;2.95;;
14526;SDS011;7350;51.208;4.238;2023-05-27T05:40:49;7.45;;;3.78;;
14526;SDS011;7350;51.208;4.238;2023-05-27T05:43:17;9.18;;;3.92;;
14526;SDS011;7350;51.208;4.238;2023-05-27T05:45:45;8.40;;;3.67;;
14526;SDS011;7350;51.208;4.238;2023-05-27T05:48:12;8.80;;;3.65;;
14526;SDS011;7350;51.208;4.238;2023-05-27T05:50:39;6.38;;;3.30;;
14526;SDS011;7350;51.208;4.238;2023-05-27T05:53:06;8.25;;;3.47;;
14526;SDS011;7350;51.208;4.238;2023-05-27T05:55:33;6.68;;;3.30;;
14526;SDS011;7350;51.208;4.238;2023-05-27T05:58:02;7.32;;;3.90;;
14526;SDS011;7350;51.208;4.238;2023-05-27T06:00:29;9.55;;;4.15;;
14526;SDS011;7350;51.208;4.238;2023-05-27T06:02:56;10.35;;;3.85;;
14526;SDS011;7350;51.208;4.238;2023-05-27T06:05:22;9.57;;;3.78;;
14526;SDS011;7350;51.208;4.238;2023-05-27T06:07:51;11.75;;;4.25;;
14526;SDS011;7350;51.208;4.238;2023-05-27T06:10:18;10.43;;;4.55;;
14526;SDS011;7350;51.208;4.238;2023-05-27T06:12:45;9.82;;;4.45;;
14526;SDS011;7350;51.208;4.238;2023-05-27T06:15:14;9.90;;;4.15;;
14526;SDS011;7350;51.208;4.238;2023-05-27T06:17:41;9.70;;;4.40;;
14526;SDS011;7350;51.208;4.238;2023-05-27T06:20:09;12.73;;;4.68;;
14526;SDS011;7350;51.208;4.238;2023-05-27T06:22:36;11.13;;;4.15;;
14526;SDS011;7350;51.208;4.238;2023-05-27T06:25:03;13.65;;;4.20;;
14526;SDS011;7350;51.208;4.238;2023-05-27T06:27:31;10.30;;;4.47;;
14526;SDS011;7350;51.208;4.238;2023-05-27T06:29:58;13.27;;;4.10;;
14526;SDS011;7350;51.208;4.238;2023-05-27T06:32:26;9.70;;;3.90;;
14526;SDS011;7350;51.208;4.238;2023-05-27T06:34:53;10.45;;;4.10;;
14526;SDS011;7350;51.208;4.238;2023-05-27T06:37:20;12.25;;;4.75;;
14526;SDS011;7350;51.208;4.238;2023-05-27T06:39:47;8.50;;;3.65;;
14526;SDS011;7350;51.208;4.238;2023-05-27T06:42:14;10.90;;;3.60;;
14526;SDS011;7350;51.208;4.238;2023-05-27T06:44:41;8.82;;;3.85;;
14526;SDS011;7350;51.208;4.238;2023-05-27T06:47:08;7.97;;;3.55;;
14526;SDS011;7350;51.208;4.238;2023-05-27T06:49:37;8.65;;;3.53;;
14526;SDS011;7350;51.208;4.238;2023-05-27T06:52:04;7.70;;;3.78;;
14526;SDS011;7350;51.208;4.238;2023-05-27T06:54:31;8.10;;;3.55;;
14526;SDS011;7350;51.208;4.238;2023-05-27T06:56:59;10.13;;;3.80;;
14526;SDS011;7350;51.208;4.238;2023-05-27T06:59:26;11.30;;;4.40;;
14526;SDS011;7350;51.208;4.238;2023-05-27T07:01:53;10.63;;;4.40;;
14526;SDS011;7350;51.208;4.238;2023-05-27T07:04:21;10.38;;;4.65;;
14526;SDS011;7350;51.208;4.238;2023-05-27T07:06:49;9.07;;;3.60;;
14526;SDS011;7350;51.208;4.238;2023-05-27T07:09:17;10.55;;;4.05;;
14526;SDS011;7350;51.208;4.238;2023-05-27T07:11:44;9.40;;;3.90;;
14526;SDS011;7350;51.208;4.238;2023-05-27T07:14:11;10.38;;;3.92;;
14526;SDS011;7350;51.208;4.238;2023-05-27T07:16:38;9.48;;;3.67;;
14526;SDS011;7350;51.208;4.238;2023-05-27T07:19:05;7.28;;;3.80;;
14526;SDS011;7350;51.208;4.238;2023-05-27T07:21:32;8.05;;;3.65;;
14526;SDS011;7350;51.208;4.238;2023-05-27T07:24:00;8.35;;;3.72;;
14526;SDS011;7350;51.208;4.238;2023-05-27T07:26:28;8.18;;;3.38;;
14526;SDS011;7350;51.208;4.238;2023-05-27T07:28:56;7.07;;;3.67;;
14526;SDS011;7350;51.208;4.238;2023-05-27T07:31:24;6.65;;;3.28;;
14526;SDS011;7350;51.208;4.238;2023-05-27T07:33:51;7.68;;;3.47;;
14526;SDS011;7350;51.208;4.238;2023-05-27T07:36:18;8.60;;;3.38;;
14526;SDS011;7350;51.208;4.238;2023-05-27T07:38:45;9.32;;;3.55;;
14526;SDS011;7350;51.208;4.238;2023-05-27T07:41:13;6.18;;;3.55;;
14526;SDS011;7350;51.208;4.238;2023-05-27T07:43:41;6.40;;;3.17;;
14526;SDS011;7350;51.208;4.238;2023-05-27T07:46:08;6.75;;;3.38;;
14526;SDS011;7350;51.208;4.238;2023-05-27T07:48:35;11.75;;;3.70;;
14526;SDS011;7350;51.208;4.238;2023-05-27T07:51:02;8.63;;;3.53;;
14526;SDS011;7350;51.208;4.238;2023-05-27T07:53:29;8.82;;;3.78;;
14526;SDS011;7350;51.208;4.238;2023-05-27T07:55:56;6.18;;;3.15;;
14526;SDS011;7350;51.208;4.238;2023-05-27T07:58:24;6.15;;;2.95;;
14526;SDS011;7350;51.208;4.238;2023-05-27T08:00:51;6.43;;;3.10;;
14526;SDS011;7350;51.208;4.238;2023-05-27T08:03:18;5.68;;;2.95;;
14526;SDS011;7350;51.208;4.238;2023-05-27T08:05:45;6.22;;;2.88;;
14526;SDS011;7350;51.208;4.238;2023-05-27T08:08:12;7.93;;;3.55;;
14526;SDS011;7350;51.208;4.238;2023-05-27T08:10:40;8.38;;;3.40;;
14526;SDS011;7350;51.208;4.238;2023-05-27T08:13:09;8.93;;;3.83;;
14526;SDS011;7350;51.208;4.238;2023-05-27T08:15:37;7.82;;;2.95;;
14526;SDS011;7350;51.208;4.238;2023-05-27T08:18:04;5.78;;;3.40;;
14526;SDS011;7350;51.208;4.238;2023-05-27T08:20:31;8.38;;;3.28;;
14526;SDS011;7350;51.208;4.238;2023-05-27T08:22:58;6.53;;;3.08;;
14526;SDS011;7350;51.208;4.238;2023-05-27T08:25:25;8.23;;;3.10;;
14526;SDS011;7350;51.208;4.238;2023-05-27T08:27:52;5.18;;;3.35;;
14526;SDS011;7350;51.208;4.238;2023-05-27T08:30:22;5.72;;;3.35;;
14526;SDS011;7350;51.208;4.238;2023-05-27T08:32:50;6.45;;;3.08;;
14526;SDS011;7350;51.208;4.238;2023-05-27T08:35:17;5.38;;;2.75;;
14526;SDS011;7350;51.208;4.238;2023-05-27T08:37:45;4.80;;;3.03;;
14526;SDS011;7350;51.208;4.238;2023-05-27T08:40:13;5.00;;;3.03;;
14526;SDS011;7350;51.208;4.238;2023-05-27T08:42:41;6.00;;;2.90;;
14526;SDS011;7350;51.208;4.238;2023-05-27T08:45:09;6.35;;;2.95;;
14526;SDS011;7350;51.208;4.238;2023-05-27T08:47:37;6.28;;;2.95;;
14526;SDS011;7350;51.208;4.238;2023-05-27T08:50:07;7.60;;;3.35;;
14526;SDS011;7350;51.208;4.238;2023-05-27T08:52:36;5.63;;;2.90;;
14526;SDS011;7350;51.208;4.238;2023-05-27T08:55:09;5.45;;;2.83;;
14526;SDS011;7350;51.208;4.238;2023-05-27T08:57:38;6.43;;;2.92;;
14526;SDS011;7350;51.208;4.238;2023-05-27T09:00:10;4.80;;;2.63;;
14526;SDS011;7350;51.208;4.238;2023-05-27T09:02:39;4.75;;;2.88;;
14526;SDS011;7350;51.208;4.238;2023-05-27T09:05:07;4.95;;;2.88;;
14526;SDS011;7350;51.208;4.238;2023-05-27T09:07:36;6.28;;;3.03;;
14526;SDS011;7350;51.208;4.238;2023-05-27T09:10:03;5.32;;;2.65;;
14526;SDS011;7350;51.208;4.238;2023-05-27T09:12:32;5.03;;;2.88;;
14526;SDS011;7350;51.208;4.238;2023-05-27T09:15:00;5.10;;;2.42;;
14526;SDS011;7350;51.208;4.238;2023-05-27T09:17:29;5.65;;;3.00;;
14526;SDS011;7350;51.208;4.238;2023-05-27T09:19:56;6.85;;;3.30;;
14526;SDS011;7350;51.208;4.238;2023-05-27T09:22:25;6.95;;;2.80;;
14526;SDS011;7350;51.208;4.238;2023-05-27T09:24:54;5.68;;;3.10;;
14526;SDS011;7350;51.208;4.238;2023-05-27T09:27:25;6.38;;;2.78;;
14526;SDS011;7350;51.208;4.238;2023-05-27T09:29:52;3.90;;;2.47;;
14526;SDS011;7350;51.208;4.238;2023-05-27T09:32:25;4.75;;;2.85;;
14526;SDS011;7350;51.208;4.238;2023-05-27T09:34:53;5.60;;;3.00;;
14526;SDS011;7350;51.208;4.238;2023-05-27T09:37:24;7.05;;;3.05;;
14526;SDS011;7350;51.208;4.238;2023-05-27T09:39:57;7.10;;;2.78;;
14526;SDS011;7350;51.208;4.238;2023-05-27T09:42:24;5.38;;;3.00;;
14526;SDS011;7350;51.208;4.238;2023-05-27T09:44:51;5.32;;;2.85;;
14526;SDS011;7350;51.208;4.238;2023-05-27T09:47:20;4.82;;;2.58;;
14526;SDS011;7350;51.208;4.238;2023-05-27T09:49:49;4.15;;;2.72;;
14526;SDS011;7350;51.208;4.238;2023-05-27T09:52:19;5.57;;;2.78;;
14526;SDS011;7350;51.208;4.238;2023-05-27T09:54:49;5.72;;;3.05;;
14526;SDS011;7350;51.208;4.238;2023-05-27T09:57:17;4.47;;;2.67;;
14526;SDS011;7350;51.208;4.238;2023-05-27T09:59:45;5.70;;;3.00;;
14526;SDS011;7350;51.208;4.238;2023-05-27T10:02:14;8.27;;;3.13;;
14526;SDS011;7350;51.208;4.238;2023-05-27T10:04:43;5.47;;;2.65;;
14526;SDS011;7350;51.208;4.238;2023-05-27T10:07:13;5.32;;;3.40;;
14526;SDS011;7350;51.208;4.238;2023-05-27T10:09:44;4.47;;;2.97;;
14526;SDS011;7350;51.208;4.238;2023-05-27T10:12:13;4.78;;;3.20;;
14526;SDS011;7350;51.208;4.238;2023-05-27T10:14:41;5.22;;;2.80;;
14526;SDS011;7350;51.208;4.238;2023-05-27T10:17:11;4.38;;;2.60;;
14526;SDS011;7350;51.208;4.238;2023-05-27T10:19:48;5.88;;;3.22;;
14526;SDS011;7350;51.208;4.238;2023-05-27T10:22:19;6.72;;;3.45;;
14526;SDS011;7350;51.208;4.238;2023-05-27T10:24:46;7.90;;;3.53;;
14526;SDS011;7350;51.208;4.238;2023-05-27T10:27:16;6.70;;;3.33;;
14526;SDS011;7350;51.208;4.238;2023-05-27T10:29:43;8.18;;;3.67;;
14526;SDS011;7350;51.208;4.238;2023-05-27T10:32:10;8.32;;;3.78;;
14526;SDS011;7350;51.208;4.238;2023-05-27T10:34:37;8.38;;;3.85;;
14526;SDS011;7350;51.208;4.238;2023-05-27T10:37:09;7.15;;;3.40;;
14526;SDS011;7350;51.208;4.238;2023-05-27T10:39:36;7.57;;;3.22;;
14526;SDS011;7350;51.208;4.238;2023-05-27T10:42:03;8.52;;;3.72;;
14526;SDS011;7350;51.208;4.238;2023-05-27T10:44:33;7.07;;;4.03;;
14526;SDS011;7350;51.208;4.238;2023-05-27T10:47:01;7.47;;;3.65;;
14526;SDS011;7350;51.208;4.238;2023-05-27T10:49:32;8.18;;;3.80;;
14526;SDS011;7350;51.208;4.238;2023-05-27T10:52:07;7.63;;;3.55;;
14526;SDS011;7350;51.208;4.238;2023-05-27T10:54:37;7.45;;;3.08;;
14526;SDS011;7350;51.208;4.238;2023-05-27T10:57:05;6.55;;;3.50;;
14526;SDS011;7350;51.208;4.238;2023-05-27T10:59:38;7.68;;;3.45;;
14526;SDS011;7350;51.208;4.238;2023-05-27T11:02:11;7.32;;;3.53;;
14526;SDS011;7350;51.208;4.238;2023-05-27T11:04:38;8.02;;;3.40;;
14526;SDS011;7350;51.208;4.238;2023-05-27T11:07:06;6.32;;;3.40;;
14526;SDS011;7350;51.208;4.238;2023-05-27T11:09:42;8.10;;;3.65;;
14526;SDS011;7350;51.208;4.238;2023-05-27T11:12:12;9.95;;;3.53;;
14526;SDS011;7350;51.208;4.238;2023-05-27T11:14:43;5.72;;;3.00;;
14526;SDS011;7350;51.208;4.238;2023-05-27T11:17:10;8.70;;;3.80;;
14526;SDS011;7350;51.208;4.238;2023-05-27T11:19:38;7.38;;;3.70;;
14526;SDS011;7350;51.208;4.238;2023-05-27T11:22:06;7.63;;;3.42;;
14526;SDS011;7350;51.208;4.238;2023-05-27T11:24:34;8.00;;;3.63;;
14526;SDS011;7350;51.208;4.238;2023-05-27T11:27:08;8.77;;;3.67;;
14526;SDS011;7350;51.208;4.238;2023-05-27T11:29:36;10.30;;;3.60;;
14526;SDS011;7350;51.208;4.238;2023-05-27T11:32:05;6.72;;;3.25;;
14526;SDS011;7350;51.208;4.238;2023-05-27T11:34:33;6.57;;;3.65;;
14526;SDS011;7350;51.208;4.238;2023-05-27T11:37:01;6.28;;;3.67;;
14526;SDS011;7350;51.208;4.238;2023-05-27T11:39:30;9.75;;;3.92;;
14526;SDS011;7350;51.208;4.238;2023-05-27T11:41:58;6.65;;;3.35;;
14526;SDS011;7350;51.208;4.238;2023-05-27T11:44:27;6.93;;;3.42;;
14526;SDS011;7350;51.208;4.238;2023-05-27T11:46:57;6.75;;;3.58;;
14526;SDS011;7350;51.208;4.238;2023-05-27T11:49:27;7.57;;;3.63;;
14526;SDS011;7350;51.208;4.238;2023-05-27T11:51:55;8.23;;;3.88;;
14526;SDS011;7350;51.208;4.238;2023-05-27T11:54:24;9.27;;;3.70;;
14526;SDS011;7350;51.208;4.238;2023-05-27T11:56:53;6.93;;;3.85;;
14526;SDS011;7350;51.208;4.238;2023-05-27T11:59:21;9.00;;;3.58;;
14526;SDS011;7350;51.208;4.238;2023-05-27T12:01:50;7.72;;;3.78;;
14526;SDS011;7350;51.208;4.238;2023-05-27T12:04:18;6.78;;;3.70;;
14526;SDS011;7350;51.208;4.238;2023-05-27T12:06:47;6.45;;;3.88;;
14526;SDS011;7350;51.208;4.238;2023-05-27T12:09:14;8.00;;;3.38;;
14526;SDS011;7350;51.208;4.238;2023-05-27T12:11:42;7.53;;;3.42;;
14526;SDS011;7350;51.208;4.238;2023-05-27T12:14:10;6.57;;;3.53;;
14526;SDS011;7350;51.208;4.238;2023-05-27T12:16:37;6.53;;;2.90;;
14526;SDS011;7350;51.208;4.238;2023-05-27T12:19:04;7.93;;;3.20;;
14526;SDS011;7350;51.208;4.238;2023-05-27T12:21:32;6.28;;;3.50;;
14526;SDS011;7350;51.208;4.238;2023-05-27T12:24:00;6.63;;;3.35;;
14526;SDS011;7350;51.208;4.238;2023-05-27T12:26:27;9.27;;;3.65;;
14526;SDS011;7350;51.208;4.238;2023-05-27T12:28:54;7.63;;;3.55;;
14526;SDS011;7350;51.208;4.238;2023-05-27T12:31:22;5.88;;;3.47;;
14526;SDS011;7350;51.208;4.238;2023-05-27T12:33:49;6.88;;;3.42;;
14526;SDS011;7350;51.208;4.238;2023-05-27T12:36:16;5.43;;;3.20;;
14526;SDS011;7350;51.208;4.238;2023-05-27T12:38:44;6.90;;;3.33;;
14526;SDS011;7350;51.208;4.238;2023-05-27T12:41:13;5.55;;;3.22;;
14526;SDS011;7350;51.208;4.238;2023-05-27T12:43:40;7.85;;;3.63;;
14526;SDS011;7350;51.208;4.238;2023-05-27T12:46:08;7.45;;;3.78;;
14526;SDS011;7350;51.208;4.238;2023-05-27T12:48:35;6.43;;;3.53;;
14526;SDS011;7350;51.208;4.238;2023-05-27T12:51:02;6.15;;;3.50;;
14526;SDS011;7350;51.208;4.238;2023-05-27T12:53:29;6.32;;;3.38;;
14526;SDS011;7350;51.208;4.238;2023-05-27T12:55:56;7.93;;;3.42;;
14526;SDS011;7350;51.208;4.238;2023-05-27T12:58:26;6.60;;;3.42;;
14526;SDS011;7350;51.208;4.238;2023-05-27T13:00:54;6.70;;;3.50;;
14526;SDS011;7350;51.208;4.238;2023-05-27T13:03:21;7.55;;;3.20;;
14526;SDS011;7350;51.208;4.238;2023-05-27T13:05:49;8.50;;;3.97;;
14526;SDS011;7350;51.208;4.238;2023-05-27T13:08:16;8.75;;;3.33;;
14526;SDS011;7350;51.208;4.238;2023-05-27T13:10:43;8.13;;;3.47;;
14526;SDS011;7350;51.208;4.238;2023-05-27T13:13:10;7.72;;;3.38;;
14526;SDS011;7350;51.208;4.238;2023-05-27T13:15:39;8.07;;;3.58;;
14526;SDS011;7350;51.208;4.238;2023-05-27T13:18:06;9.97;;;3.53;;
14526;SDS011;7350;51.208;4.238;2023-05-27T13:20:35;8.77;;;3.90;;
14526;SDS011;7350;51.208;4.238;2023-05-27T13:23:03;8.45;;;3.75;;
14526;SDS011;7350;51.208;4.238;2023-05-27T13:25:30;8.50;;;3.65;;
14526;SDS011;7350;51.208;4.238;2023-05-27T13:27:58;8.27;;;3.72;;
14526;SDS011;7350;51.208;4.238;2023-05-27T13:30:25;10.38;;;3.45;;
14526;SDS011;7350;51.208;4.238;2023-05-27T13:32:54;8.75;;;3.25;;
14526;SDS011;7350;51.208;4.238;2023-05-27T13:35:21;9.48;;;3.42;;
14526;SDS011;7350;51.208;4.238;2023-05-27T13:37:48;7.93;;;3.53;;
14526;SDS011;7350;51.208;4.238;2023-05-27T13:40:15;8.93;;;4.00;;
14526;SDS011;7350;51.208;4.238;2023-05-27T13:42:43;10.63;;;4.10;;
14526;SDS011;7350;51.208;4.238;2023-05-27T13:45:10;14.18;;;4.07;;
14526;SDS011;7350;51.208;4.238;2023-05-27T13:47:37;12.00;;;3.90;;
14526;SDS011;7350;51.208;4.238;2023-05-27T13:50:09;10.32;;;3.50;;
14526;SDS011;7350;51.208;4.238;2023-05-27T13:52:36;9.48;;;3.88;;
14526;SDS011;7350;51.208;4.238;2023-05-27T13:55:04;10.80;;;3.75;;
14526;SDS011;7350;51.208;4.238;2023-05-27T13:57:33;11.15;;;3.70;;
14526;SDS011;7350;51.208;4.238;2023-05-27T14:00:00;9.93;;;3.92;;
14526;SDS011;7350;51.208;4.238;2023-05-27T14:02:27;9.15;;;3.75;;
14526;SDS011;7350;51.208;4.238;2023-05-27T14:04:54;10.80;;;3.10;;
14526;SDS011;7350;51.208;4.238;2023-05-27T14:07:23;8.98;;;3.45;;
14526;SDS011;7350;51.208;4.238;2023-05-27T14:09:50;7.13;;;3.17;;
14526;SDS011;7350;51.208;4.238;2023-05-27T14:12:17;7.25;;;3.00;;
14526;SDS011;7350;51.208;4.238;2023-05-27T14:14:44;7.68;;;3.33;;
14526;SDS011;7350;51.208;4.238;2023-05-27T14:17:11;8.80;;;3.60;;
14526;SDS011;7350;51.208;4.238;2023-05-27T14:19:38;7.28;;;3.20;;
14526;SDS011;7350;51.208;4.238;2023-05-27T14:22:05;8.98;;;3.25;;
14526;SDS011;7350;51.208;4.238;2023-05-27T14:24:34;9.52;;;3.65;;
14526;SDS011;7350;51.208;4.238;2023-05-27T14:27:01;9.05;;;3.20;;
14526;SDS011;7350;51.208;4.238;2023-05-27T14:29:29;11.65;;;3.83;;
14526;SDS011;7350;51.208;4.238;2023-05-27T14:31:56;8.30;;;3.45;;
14526;SDS011;7350;51.208;4.238;2023-05-27T14:34:24;8.52;;;3.17;;
14526;SDS011;7350;51.208;4.238;2023-05-27T14:36:53;8.57;;;3.42;;
14526;SDS011;7350;51.208;4.238;2023-05-27T14:39:20;9.02;;;3.25;;
14526;SDS011;7350;51.208;4.238;2023-05-27T14:41:49;6.70;;;3.30;;
14526;SDS011;7350;51.208;4.238;2023-05-27T14:44:16;6.25;;;2.90;;
14526;SDS011;7350;51.208;4.238;2023-05-27T14:46:43;9.15;;;3.65;;
14526;SDS011;7350;51.208;4.238;2023-05-27T14:49:10;7.63;;;3.35;;
14526;SDS011;7350;51.208;4.238;2023-05-27T14:51:37;8.45;;;3.40;;
14526;SDS011;7350;51.208;4.238;2023-05-27T14:54:04;10.38;;;3.33;;
14526;SDS011;7350;51.208;4.238;2023-05-27T14:56:31;7.93;;;3.65;;
14526;SDS011;7350;51.208;4.238;2023-05-27T14:58:59;5.30;;;2.85;;
14526;SDS011;7350;51.208;4.238;2023-05-27T15:01:27;6.82;;;3.10;;
14526;SDS011;7350;51.208;4.238;2023-05-27T15:03:54;7.70;;;3.20;;